Latest Weather Observations for South Johnstone

IDQ60801

Issued at 8:32 pm EST Saturday 16 December 2017 (issued every 30 minutes, with the page automatically refreshed every 10 minutes)

About weather observations | Map of weather stations | Latest weather observations for QLD | Other Formats
Station Details ID: 032037 Name: SOUTH JOHNSTONE EXP STN Lat: -17.61 Lon: 146.00 Height: 18.3 m
Data from the previous 72 hours. | See also: Recent months at South Johnstone
Date/Time
EST
Temp
°C
App
Temp
°C
Dew
Point
°C
Rel
Hum
%
Delta-T
°C
Wind Press
QNH
hPa
Press
MSL
hPa
Rain since
9am
mm
Dir  Spd
km/h
Gust
km/h
Spd
kts
Gust
kts
16/08:30pm 26.2 31.5 23.1 83 2.1 CALM 0 0 0 0 1011.6 - 0.0
16/08:00pm 26.4 30.6 22.4 78 2.7 S 4 7 2 4 1011.5 - 0.0
16/07:30pm 26.6 31.2 22.5 78 2.8 S 2 7 1 4 1011.3 - 0.0
16/07:00pm 26.9 30.8 22.5 77 3.0 S 6 9 3 5 1011.2 - 0.0
16/06:30pm 27.3 30.5 22.3 74 3.4 SE 9 13 5 7 1010.9 - 0.0
16/06:00pm 28.3 31.5 22.4 70 4.0 SE 9 15 5 8 1010.6 1010.5 0.0
16/05:30pm 28.5 30.5 21.5 66 4.7 SE 13 20 7 11 1010.1 - 0.0
16/05:00pm 29.7 32.3 22.7 66 4.8 ESE 13 22 7 12 1009.7 - 0.0
16/04:30pm 29.9 32.0 21.7 61 5.5 ESE 13 19 7 10 1009.5 - 0.0
16/04:00pm 29.4 31.5 21.0 60 5.6 SE 11 22 6 12 1009.5 - 0.0
16/03:30pm 29.8 32.1 22.0 63 5.3 ESE 13 20 7 11 1009.5 - 0.0
16/03:00pm 30.2 32.0 21.8 60 5.7 SE 15 24 8 13 1009.6 1009.5 0.0
16/02:30pm 31.0 33.0 21.5 57 6.4 ESE 13 20 7 11 1009.8 - 0.0
16/02:00pm 31.1 32.7 20.8 54 6.9 ESE 13 24 7 13 1010.2 - 0.0
16/01:30pm 31.3 32.8 20.5 52 7.2 SE 13 20 7 11 1010.5 - 0.0
16/01:00pm 31.2 33.0 20.4 52 7.2 ESE 11 22 6 12 1010.7 - 0.0
16/12:30pm 31.0 32.1 19.6 50 7.5 SE 13 22 7 12 1011.2 - 0.0
16/12:00pm 30.5 32.2 20.2 54 6.8 SE 11 19 6 10 1011.6 1011.5 0.0
16/11:30am 30.3 31.8 19.8 53 6.9 E 11 20 6 11 1011.9 - 0.0
16/11:00am 30.8 32.8 20.7 55 6.7 ESE 11 20 6 11 1012.2 - 0.0
16/10:30am 31.2 33.7 21.0 54 6.8 ESE 9 13 5 7 1012.4 - 0.0
16/10:00am 29.1 32.4 21.8 64 4.9 SE 7 11 4 6 1012.7 - 0.0
16/09:30am 29.2 32.6 21.6 63 5.1 S 6 11 3 6 1012.7 - 0.0
16/09:00am 28.5 32.1 22.3 69 4.2 SW 7 11 4 6 1012.6 1012.5 0.0
16/08:30am 28.0 31.9 21.9 69 4.1 WSW 4 9 2 5 1012.6 - 0.0
16/08:00am 26.1 29.3 21.6 76 3.0 WSW 7 9 4 5 1012.5 - 0.0
16/07:30am 24.3 29.0 22.0 87 1.5 CALM 0 7 0 4 1012.5 - 0.0
16/07:00am 22.9 25.8 21.1 89 1.2 WSW 7 13 4 7 1012.1 - 0.0
16/06:30am 21.7 25.3 20.6 93 0.7 W 2 9 1 5 1011.9 - 0.0
16/06:00am 21.1 23.9 20.5 96 0.4 W 6 7 3 4 1011.6 1011.5 0.0
16/05:30am 21.0 24.9 20.4 96 0.4 CALM 0 4 0 2 1011.1 - 0.0
16/05:00am 21.1 24.3 20.5 96 0.4 W 4 7 2 4 1010.8 - 0.0
16/04:30am 21.2 25.2 20.6 96 0.4 CALM 0 7 0 4 1010.5 - 0.0
16/04:00am 21.2 24.1 20.6 96 0.4 WNW 6 9 3 5 1010.2 - 0.0
16/03:30am 21.4 24.4 20.8 96 0.4 W 6 11 3 6 1010.1 - 0.0
16/03:00am 21.8 26.0 21.0 95 0.5 CALM 0 4 0 2 1010.0 1009.9 0.0
16/02:30am 22.0 26.3 21.1 95 0.6 CALM 0 0 0 0 1010.2 - 0.0
16/02:00am 22.0 25.6 21.2 95 0.5 WSW 4 7 2 4 1010.2 - 0.0
16/01:30am 22.4 25.7 21.5 95 0.6 W 6 11 3 6 1010.2 - 0.0
16/01:00am 22.3 26.0 21.4 95 0.6 W 4 9 2 5 1010.6 - 0.0
16/12:30am 22.5 25.3 21.6 95 0.6 WSW 9 11 5 6 1010.7 - 0.0
16/12:00am 22.4 25.1 21.3 93 0.7 WSW 9 11 5 6 1011.1 1011.0 0.0
 
Date/Time
EST
Temp
°C
App
Temp
°C
Dew
Point
°C
Rel
Hum
%
Delta-T
°C
Wind Press
QNH
hPa
Press
MSL
hPa
Rain since
9am
mm
Dir  Spd
km/h
Gust
km/h
Spd
kts
Gust
kts
15/11:30pm 22.8 27.5 21.9 95 0.6 CALM 0 2 0 1 1011.3 - 0.0
15/11:00pm 23.1 27.7 21.7 92 0.9 CALM 0 0 0 0 1011.6 - 0.0
15/10:30pm 23.4 28.1 22.0 92 0.9 CALM 0 0 0 0 1011.6 - 0.0
15/10:00pm 23.5 27.7 21.8 90 1.1 W 2 7 1 4 1011.6 - 0.0
15/09:30pm 23.9 28.7 22.1 90 1.2 CALM 0 2 0 1 1011.3 - 0.0
15/09:00pm 24.1 28.1 22.0 88 1.4 W 4 9 2 5 1010.8 1010.7 0.0
15/08:30pm 24.4 29.1 22.0 86 1.6 CALM 0 0 0 0 1010.5 - 0.0
15/08:00pm 25.4 30.0 21.8 80 2.4 CALM 0 0 0 0 1010.2 - 0.0
15/07:30pm 25.4 29.9 21.6 79 2.5 CALM 0 0 0 0 1009.9 - 0.0
15/07:00pm 25.9 30.5 21.7 77 2.8 CALM 0 0 0 0 1009.4 - 0.0
15/06:30pm 27.1 30.2 21.4 71 3.8 ESE 7 11 4 6 1008.9 - 0.0
15/06:00pm 28.1 30.9 21.5 67 4.4 SE 9 13 5 7 1008.5 1008.4 0.0
15/05:30pm 28.8 30.9 21.0 62 5.2 ESE 11 20 6 11 1008.2 - 0.0
15/05:00pm 29.6 31.7 20.9 59 5.8 ESE 11 17 6 9 1007.9 - 0.0
15/04:30pm 29.6 31.1 21.2 60 5.6 SE 15 20 8 11 1007.8 - 0.0
15/04:00pm 29.9 31.2 20.2 56 6.4 ESE 13 22 7 12 1007.7 - 0.0
15/03:30pm 30.5 31.7 20.6 55 6.6 ESE 15 22 8 12 1007.5 - 0.0
15/03:00pm 30.5 32.0 20.6 55 6.6 ESE 13 24 7 13 1007.8 1007.7 0.0
15/02:30pm 30.4 31.5 20.5 55 6.6 E 15 22 8 12 1007.9 - 0.0
15/02:00pm 30.9 32.6 20.2 53 7.1 ESE 11 24 6 13 1008.3 - 0.0
15/01:30pm 30.7 32.0 20.1 53 7.0 ESE 13 20 7 11 1008.5 - 0.0
15/01:00pm 30.9 32.2 20.2 53 7.1 SE 13 20 7 11 1008.8 - 0.0
15/12:30pm 31.3 32.9 19.9 50 7.5 SSE 11 19 6 10 1009.2 - 0.0
15/12:00pm 30.7 33.0 20.6 54 6.7 E 9 15 5 8 1009.5 1009.4 0.0
15/11:30am 31.3 33.6 19.9 50 7.5 SE 7 17 4 9 1009.8 - 0.0
15/11:00am 29.8 31.4 19.9 55 6.5 SE 11 15 6 8 1010.0 - 0.0
15/10:30am 29.7 32.1 19.6 54 6.6 S 6 13 3 7 1010.1 - 0.0
15/10:00am 29.0 30.9 19.7 57 6.1 SSE 9 15 5 8 1010.5 - 0.0
15/09:30am 29.2 31.8 20.1 58 6.0 SSE 6 13 3 7 1010.7 - 0.0
15/09:00am 27.1 30.3 21.7 72 3.6 SSW 7 11 4 6 1010.9 1010.8 0.0
15/08:30am 27.0 30.4 21.6 72 3.6 WSW 6 9 3 5 1010.9 - 0.0
15/08:00am 26.0 31.1 22.6 81 2.3 CALM 0 0 0 0 1010.9 - 0.0
15/07:30am 24.3 29.2 22.4 89 1.3 CALM 0 4 0 2 1010.9 - 0.0
15/07:00am 22.2 25.3 21.0 93 0.8 W 6 9 3 5 1011.0 - 0.0
15/06:30am 21.7 24.9 20.6 93 0.7 WSW 4 9 2 5 1010.4 - 0.0
15/06:00am 20.7 23.7 20.1 96 0.4 WNW 4 7 2 4 1010.1 1010.0 0.0
15/05:30am 20.7 24.1 20.1 96 0.4 WNW 2 9 1 5 1009.8 - 0.0
15/05:00am 20.8 24.3 20.3 97 0.3 WNW 2 7 1 4 1009.7 - 0.0
15/04:30am 21.0 24.9 20.4 96 0.4 CALM 0 0 0 0 1009.4 - 0.0
15/04:00am 21.0 25.0 20.5 97 0.3 CALM 0 0 0 0 1009.3 - 0.0
15/03:30am 21.1 25.1 20.5 96 0.4 CALM 0 0 0 0 1009.3 - 0.0
15/03:00am 21.5 25.7 20.9 96 0.4 CALM 0 0 0 0 1009.4 1009.3 0.0
15/02:30am 21.3 25.4 20.7 96 0.4 CALM 0 0 0 0 1009.3 - 0.0
15/02:00am 21.6 23.6 20.8 95 0.5 WSW 11 13 6 7 1009.4 - 0.0
15/01:30am 21.7 25.5 20.9 95 0.5 WNW 2 9 1 5 1009.6 - 0.0
15/01:00am 21.9 25.8 21.1 95 0.5 W 2 9 1 5 1009.7 - 0.0
15/12:30am 22.2 25.5 21.4 95 0.5 W 6 9 3 5 1010.1 - 0.0
15/12:00am 22.4 26.9 21.5 95 0.6 CALM 0 0 0 0 1010.4 1010.3 0.0
 
Date/Time
EST
Temp
°C
App
Temp
°C
Dew
Point
°C
Rel
Hum
%
Delta-T
°C
Wind Press
QNH
hPa
Press
MSL
hPa
Rain since
9am
mm
Dir  Spd
km/h
Gust
km/h
Spd
kts
Gust
kts
14/11:30pm 22.4 26.9 21.5 95 0.6 CALM 0 7 0 4 1010.8 - 0.0
14/11:00pm 22.5 26.9 21.4 93 0.7 CALM 0 6 0 3 1010.9 - 0.0
14/10:30pm 22.7 26.8 21.5 93 0.8 W 2 9 1 5 1011.0 - 0.0
14/10:00pm 23.0 26.3 21.8 93 0.8 W 7 11 4 6 1011.0 - 0.0
14/09:30pm 23.6 26.9 21.9 90 1.1 WSW 7 11 4 6 1010.8 - 0.0
14/09:00pm 23.8 28.5 22.0 90 1.2 CALM 0 6 0 3 1010.5 1010.4 0.0
14/08:30pm 24.2 28.2 22.1 88 1.4 WSW 4 9 2 5 1010.3 - 0.0
14/08:00pm 24.8 29.6 22.1 85 1.8 CALM 0 0 0 0 1010.0 - 0.0
14/07:30pm 25.1 29.8 22.0 83 2.1 CALM 0 0 0 0 1009.9 - 0.0
14/07:00pm 25.9 30.6 21.9 78 2.7 CALM 0 0 0 0 1009.6 - 0.0
14/06:30pm 26.9 30.6 21.5 72 3.6 ESE 4 9 2 5 1009.2 - 0.0
14/06:00pm 27.8 30.4 21.2 67 4.4 E 9 13 5 7 1008.9 1008.8 0.0
14/05:30pm 28.4 30.6 20.4 62 5.3 SE 9 15 5 8 1008.5 - 0.0
14/05:00pm 29.2 31.0 20.4 59 5.8 SE 11 20 6 11 1008.1 - 0.0
14/04:30pm 29.3 30.8 19.7 56 6.3 ESE 11 20 6 11 1007.9 - 0.0
14/04:00pm 29.3 30.5 19.9 57 6.2 ESE 13 20 7 11 1007.7 - 0.0
14/03:30pm 30.1 32.0 21.3 59 5.9 ESE 13 22 7 12 1007.7 - 0.0
14/03:00pm 30.0 31.6 20.7 57 6.2 ESE 13 24 7 13 1008.0 1007.9 0.0
14/02:30pm 30.3 31.9 21.5 59 5.9 ESE 15 22 8 12 1008.3 - 0.0
14/02:00pm 30.3 31.5 20.7 56 6.4 E 15 26 8 14 1008.5 - 0.0
14/01:30pm 30.1 30.5 18.1 48 7.7 SE 13 20 7 11 1008.8 - 0.0
14/01:00pm 30.0 30.4 19.1 52 7.1 SE 15 24 8 13 1009.0 - 0.0
14/12:30pm 30.5 31.8 20.2 54 6.8 SE 13 20 7 11 1009.5 - 0.0
14/12:00pm 30.3 31.3 19.4 52 7.1 ESE 13 20 7 11 1009.8 1009.7 0.0
14/11:30am 30.2 30.4 18.6 49 7.5 S 15 20 8 11 1010.3 - 0.0
14/11:00am 29.9 29.9 18.2 49 7.5 SE 15 28 8 15 1010.7 - 0.0
14/10:30am 30.1 30.7 18.5 49 7.5 SE 13 19 7 10 1011.0 - 0.0
14/10:00am 29.0 30.3 19.3 55 6.3 S 11 19 6 10 1011.0 - 0.0
14/09:30am 29.0 30.9 20.5 60 5.6 S 11 20 6 11 1011.3 - 0.0
14/09:00am 27.9 29.4 20.5 64 4.9 SSE 13 22 7 12 1011.5 1011.4 5.8
14/08:30am 28.1 31.1 21.2 66 4.6 SSW 7 13 4 7 1011.6 - 5.8
14/08:00am 26.2 29.1 21.1 73 3.4 SW 7 11 4 6 1011.7 - 5.8
14/07:30am 24.8 27.5 21.3 81 2.3 WSW 9 13 5 7 1011.6 - 5.8
14/07:00am 22.5 24.8 20.7 89 1.2 WSW 9 13 5 7 1011.5 - 5.8
14/06:30am 21.2 23.6 20.1 93 0.7 WSW 7 13 4 7 1011.3 - 5.8
14/06:00am 20.5 22.5 19.9 96 0.4 W 9 22 5 12 1011.0 1010.9 5.8
14/05:30am 20.5 23.0 19.9 96 0.4 W 6 13 3 7 1010.9 - 5.8
14/05:00am 20.7 24.5 20.1 96 0.4 CALM 0 0 0 0 1010.7 - 5.8
14/04:30am 20.5 24.2 19.9 96 0.4 CALM 0 0 0 0 1010.4 - 5.8
14/04:00am 20.7 24.1 20.1 96 0.4 WNW 2 7 1 4 1010.1 - 5.8
14/03:30am 20.6 23.9 20.0 96 0.4 NW 2 7 1 4 1010.0 - 5.8
14/03:00am 20.7 23.7 20.1 96 0.4 W 4 9 2 5 1010.0 1009.9 5.8
14/02:30am 20.8 23.4 20.0 95 0.5 W 6 13 3 7 1009.9 - 5.8
14/02:00am 21.0 24.9 20.4 96 0.4 CALM 0 0 0 0 1010.1 - 5.8
14/01:30am 21.1 24.6 20.3 95 0.5 W 2 7 1 4 1010.2 - 5.8
14/01:00am 21.1 24.2 20.3 95 0.5 NW 4 7 2 4 1010.6 - 5.8
14/12:30am 21.5 25.2 20.7 95 0.5 WNW 2 7 1 4 1011.1 - 5.8
14/12:00am 21.4 25.4 20.6 95 0.5 CALM 0 0 0 0 1011.6 1011.5 5.8
 
Date/Time
EST
Temp
°C
App
Temp
°C
Dew
Point
°C
Rel
Hum
%
Delta-T
°C
Wind Press
QNH
hPa
Press
MSL
hPa
Rain since
9am
mm
Dir  Spd
km/h
Gust
km/h
Spd
kts
Gust
kts
13/11:30pm 21.7 24.1 20.8 95 0.6 W 9 13 5 7 1012.0 - 5.8
13/11:00pm 21.9 25.0 21.0 95 0.6 W 6 11 3 6 1012.3 - 5.8
13/10:30pm 22.0 25.0 20.9 93 0.7 W 6 13 3 7 1012.5 - 5.8
13/10:00pm 22.3 26.6 21.2 93 0.7 CALM 0 0 0 0 1012.4 - 5.8
13/09:30pm 22.6 25.5 21.1 91 1.0 WSW 7 9 4 5 1012.0 - 5.8
13/09:00pm 23.1 26.3 21.3 90 1.2 W 6 11 3 6 1011.8 1011.7 5.8

Other Formats:

Comma delimited format used in spreadsheet applications
http://www.bom.gov.au/fwo/IDQ60801/IDQ60801.95292.axf

JavaScript Object Notation format (JSON) in row-major order
http://www.bom.gov.au/fwo/IDQ60801/IDQ60801.95292.json